Oradea, Romania

1:45 AM EEST on July 30, 2015 (GMT +0300)
CARTIER IORGA | | Change Station
CLOSE
Current Station
Personal Weather Station
Location: ORADEA, BIHOR
Elevation: 461 ft
Nearby Weather Stations

Elev 461 ft 47.06 °N, 21.94 °E | Updated 12 seconds ago

Clear
Clear
63.9 °F
Feels Like 63.9 °F
N
1.0
Wind Variable Wind from West
Gusts 3.0 mph

Today
High -- | Low -- °F
--% Chance of Precip.
Yesterday
High -- | Low -- °F
Precip. -- in
6:08 AM 9:08 PM
Waxing Gibbous, 97% visible
Pressure 29.83 in
Visibility 6.2 miles
Clouds
Dew Point 58 °F
Humidity 81%
Rainfall 0.00 in
Snow Depth Not available.
UV Not available.
Pollen Not available.
Air Quality Not available.
Flu Activity Not available.
METAR LROD 292200Z AUTO 03007KT 010V070 9999 NCD 18/14 Q1010

More Conditions Fewer Conditions

Pressure 29.83 in
Visibility 6.2 miles
Clouds
Dew Point 58 °F
Humidity 81%
Rainfall 0.00 in
Snow Depth Not available.
UV Not available.
Pollen Not available.
Air Quality Not available.
Flu Activity Not available.
METAR LROD 292200Z AUTO 03007KT 010V070 9999 NCD 18/14 Q1010

More Conditions Fewer Conditions

10-Day Weather Forecast

×

Almanac

Astronomy

Jul. 30, 2015 Rise Set
Actual Time
Civil Twilight
Nautical Twilight
Astronomical Twilight
Moon
Length of Visible Light
Length of Day
Tomorrow will be .
, % of the Moon is Illuminated

Today's Extremes

Country Highs Country Lows

Community

WunderPhotos

Upload Photos

1,842,175 photos uploaded!

WunderBlogs® & News

Nearby

Air Quality

  Air Quality AQ Index Pollutant
Not available.

Snow Depth

Station Depth Elevation

Earthquake Activity

City Distance Mag. Time & Date
Minimum magnitude displayed is 2.5.

Coastal Water Temperatures

Place Temperature

Stations

Nearby Weather Stations

Station Location Temp. Windchill Dew Point Humidity Wind Precip. Elev Updated Type